sensor_id;sensor_type;location;lat;lon;timestamp;P1;durP1;ratioP1;P2;durP2;ratioP2
14613;SDS011;7393;51.446;6.800;2023-02-15T00:01:50;20.93;;;13.40;;
14613;SDS011;7393;51.446;6.800;2023-02-15T00:04:18;20.70;;;13.30;;
14613;SDS011;7393;51.446;6.800;2023-02-15T00:06:46;19.97;;;12.37;;
14613;SDS011;7393;51.446;6.800;2023-02-15T00:09:14;22.00;;;14.03;;
14613;SDS011;7393;51.446;6.800;2023-02-15T00:11:41;23.03;;;14.63;;
14613;SDS011;7393;51.446;6.800;2023-02-15T00:14:16;21.20;;;13.90;;
14613;SDS011;7393;51.446;6.800;2023-02-15T00:16:46;25.00;;;15.23;;
14613;SDS011;7393;51.446;6.800;2023-02-15T00:19:14;26.07;;;16.47;;
14613;SDS011;7393;51.446;6.800;2023-02-15T00:21:42;23.33;;;15.57;;
14613;SDS011;7393;51.446;6.800;2023-02-15T00:24:11;25.33;;;15.93;;
14613;SDS011;7393;51.446;6.800;2023-02-15T00:26:40;24.63;;;16.40;;
14613;SDS011;7393;51.446;6.800;2023-02-15T00:29:08;23.67;;;15.00;;
14613;SDS011;7393;51.446;6.800;2023-02-15T00:31:35;24.90;;;14.67;;
14613;SDS011;7393;51.446;6.800;2023-02-15T00:34:03;23.47;;;15.30;;
14613;SDS011;7393;51.446;6.800;2023-02-15T00:36:30;26.30;;;16.60;;
14613;SDS011;7393;51.446;6.800;2023-02-15T00:38:57;23.10;;;15.57;;
14613;SDS011;7393;51.446;6.800;2023-02-15T00:41:24;23.87;;;15.17;;
14613;SDS011;7393;51.446;6.800;2023-02-15T00:43:52;22.10;;;14.43;;
14613;SDS011;7393;51.446;6.800;2023-02-15T00:46:19;23.33;;;15.80;;
14613;SDS011;7393;51.446;6.800;2023-02-15T00:48:46;28.17;;;16.30;;
14613;SDS011;7393;51.446;6.800;2023-02-15T00:51:12;27.27;;;16.70;;
14613;SDS011;7393;51.446;6.800;2023-02-15T00:53:39;25.47;;;16.33;;
14613;SDS011;7393;51.446;6.800;2023-02-15T00:56:06;23.47;;;14.63;;
14613;SDS011;7393;51.446;6.800;2023-02-15T00:58:33;21.87;;;15.03;;
14613;SDS011;7393;51.446;6.800;2023-02-15T01:01:03;26.70;;;16.80;;
14613;SDS011;7393;51.446;6.800;2023-02-15T01:03:31;24.60;;;16.07;;
14613;SDS011;7393;51.446;6.800;2023-02-15T01:05:59;22.57;;;15.67;;
14613;SDS011;7393;51.446;6.800;2023-02-15T01:08:26;25.43;;;15.30;;
14613;SDS011;7393;51.446;6.800;2023-02-15T01:10:53;23.67;;;15.73;;
14613;SDS011;7393;51.446;6.800;2023-02-15T01:13:20;25.13;;;16.27;;
14613;SDS011;7393;51.446;6.800;2023-02-15T01:15:52;24.20;;;15.33;;
14613;SDS011;7393;51.446;6.800;2023-02-15T01:18:21;26.00;;;15.20;;
14613;SDS011;7393;51.446;6.800;2023-02-15T01:20:48;23.57;;;15.43;;
14613;SDS011;7393;51.446;6.800;2023-02-15T01:23:15;26.27;;;16.17;;
14613;SDS011;7393;51.446;6.800;2023-02-15T01:25:42;22.37;;;15.33;;
14613;SDS011;7393;51.446;6.800;2023-02-15T01:28:09;24.40;;;15.83;;
14613;SDS011;7393;51.446;6.800;2023-02-15T01:30:36;24.23;;;15.53;;
14613;SDS011;7393;51.446;6.800;2023-02-15T01:33:02;26.20;;;16.70;;
14613;SDS011;7393;51.446;6.800;2023-02-15T01:35:31;22.80;;;15.70;;
14613;SDS011;7393;51.446;6.800;2023-02-15T01:37:58;25.23;;;15.73;;
14613;SDS011;7393;51.446;6.800;2023-02-15T01:40:25;24.80;;;15.83;;
14613;SDS011;7393;51.446;6.800;2023-02-15T01:42:51;22.17;;;15.67;;
14613;SDS011;7393;51.446;6.800;2023-02-15T01:45:20;23.90;;;15.50;;
14613;SDS011;7393;51.446;6.800;2023-02-15T01:47:51;27.37;;;16.67;;
14613;SDS011;7393;51.446;6.800;2023-02-15T01:50:22;24.63;;;15.73;;
14613;SDS011;7393;51.446;6.800;2023-02-15T01:52:55;25.60;;;16.13;;
14613;SDS011;7393;51.446;6.800;2023-02-15T01:55:29;23.17;;;16.30;;
14613;SDS011;7393;51.446;6.800;2023-02-15T01:57:59;27.10;;;16.47;;
14613;SDS011;7393;51.446;6.800;2023-02-15T02:00:27;28.93;;;16.80;;
14613;SDS011;7393;51.446;6.800;2023-02-15T02:02:54;24.83;;;16.20;;
14613;SDS011;7393;51.446;6.800;2023-02-15T02:05:23;25.20;;;15.63;;
14613;SDS011;7393;51.446;6.800;2023-02-15T02:07:50;24.57;;;15.40;;
14613;SDS011;7393;51.446;6.800;2023-02-15T02:10:22;23.87;;;16.17;;
14613;SDS011;7393;51.446;6.800;2023-02-15T02:12:50;23.27;;;15.20;;
14613;SDS011;7393;51.446;6.800;2023-02-15T02:15:21;25.90;;;16.07;;
14613;SDS011;7393;51.446;6.800;2023-02-15T02:17:58;25.30;;;16.10;;
14613;SDS011;7393;51.446;6.800;2023-02-15T02:23:31;27.47;;;17.10;;
14613;SDS011;7393;51.446;6.800;2023-02-15T02:26:18;24.83;;;16.13;;
14613;SDS011;7393;51.446;6.800;2023-02-15T02:29:22;23.77;;;15.53;;
14613;SDS011;7393;51.446;6.800;2023-02-15T02:35:36;27.53;;;17.03;;
14613;SDS011;7393;51.446;6.800;2023-02-15T02:38:10;25.67;;;16.60;;
14613;SDS011;7393;51.446;6.800;2023-02-15T02:40:48;23.73;;;15.97;;
14613;SDS011;7393;51.446;6.800;2023-02-15T02:43:23;24.60;;;15.70;;
14613;SDS011;7393;51.446;6.800;2023-02-15T02:45:57;31.13;;;18.00;;
14613;SDS011;7393;51.446;6.800;2023-02-15T02:48:29;26.53;;;16.63;;
14613;SDS011;7393;51.446;6.800;2023-02-15T02:50:58;25.43;;;16.90;;
14613;SDS011;7393;51.446;6.800;2023-02-15T02:53:25;28.80;;;18.30;;
14613;SDS011;7393;51.446;6.800;2023-02-15T02:55:54;24.37;;;16.33;;
14613;SDS011;7393;51.446;6.800;2023-02-15T02:58:23;29.60;;;17.13;;
14613;SDS011;7393;51.446;6.800;2023-02-15T03:00:55;28.70;;;16.77;;
14613;SDS011;7393;51.446;6.800;2023-02-15T03:03:28;25.03;;;15.83;;
14613;SDS011;7393;51.446;6.800;2023-02-15T03:06:01;25.17;;;17.17;;
14613;SDS011;7393;51.446;6.800;2023-02-15T03:08:33;28.23;;;16.90;;
14613;SDS011;7393;51.446;6.800;2023-02-15T03:11:03;29.40;;;18.10;;
14613;SDS011;7393;51.446;6.800;2023-02-15T03:13:30;29.17;;;18.10;;
14613;SDS011;7393;51.446;6.800;2023-02-15T03:15:58;29.53;;;17.53;;
14613;SDS011;7393;51.446;6.800;2023-02-15T03:18:46;26.03;;;17.73;;
14613;SDS011;7393;51.446;6.800;2023-02-15T03:21:24;27.17;;;17.27;;
14613;SDS011;7393;51.446;6.800;2023-02-15T03:24:03;28.00;;;17.67;;
14613;SDS011;7393;51.446;6.800;2023-02-15T03:26:33;30.13;;;18.47;;
14613;SDS011;7393;51.446;6.800;2023-02-15T03:29:02;30.10;;;18.47;;
14613;SDS011;7393;51.446;6.800;2023-02-15T03:31:32;32.53;;;19.40;;
14613;SDS011;7393;51.446;6.800;2023-02-15T03:34:05;29.13;;;18.50;;
14613;SDS011;7393;51.446;6.800;2023-02-15T03:36:36;29.97;;;18.37;;
14613;SDS011;7393;51.446;6.800;2023-02-15T03:39:11;31.00;;;18.90;;
14613;SDS011;7393;51.446;6.800;2023-02-15T03:41:45;29.67;;;18.63;;
14613;SDS011;7393;51.446;6.800;2023-02-15T03:44:17;30.37;;;18.23;;
14613;SDS011;7393;51.446;6.800;2023-02-15T03:46:50;30.40;;;19.03;;
14613;SDS011;7393;51.446;6.800;2023-02-15T03:49:22;31.70;;;19.03;;
14613;SDS011;7393;51.446;6.800;2023-02-15T03:51:54;28.77;;;17.87;;
14613;SDS011;7393;51.446;6.800;2023-02-15T03:54:24;28.87;;;18.23;;
14613;SDS011;7393;51.446;6.800;2023-02-15T03:57:09;28.87;;;17.53;;
14613;SDS011;7393;51.446;6.800;2023-02-15T03:59:55;30.17;;;19.07;;
14613;SDS011;7393;51.446;6.800;2023-02-15T04:02:43;31.43;;;18.87;;
14613;SDS011;7393;51.446;6.800;2023-02-15T04:05:29;27.60;;;17.47;;
14613;SDS011;7393;51.446;6.800;2023-02-15T04:07:56;28.57;;;18.10;;
14613;SDS011;7393;51.446;6.800;2023-02-15T04:10:23;27.30;;;17.07;;
14613;SDS011;7393;51.446;6.800;2023-02-15T04:13:07;26.27;;;17.50;;
14613;SDS011;7393;51.446;6.800;2023-02-15T04:15:33;27.80;;;17.97;;
14613;SDS011;7393;51.446;6.800;2023-02-15T04:18:29;26.30;;;17.07;;
14613;SDS011;7393;51.446;6.800;2023-02-15T04:21:16;29.40;;;18.13;;
14613;SDS011;7393;51.446;6.800;2023-02-15T04:24:00;30.23;;;18.50;;
14613;SDS011;7393;51.446;6.800;2023-02-15T04:26:45;34.17;;;20.33;;
14613;SDS011;7393;51.446;6.800;2023-02-15T04:29:12;27.37;;;17.60;;
14613;SDS011;7393;51.446;6.800;2023-02-15T04:31:39;31.27;;;18.67;;
14613;SDS011;7393;51.446;6.800;2023-02-15T04:34:07;32.87;;;19.03;;
14613;SDS011;7393;51.446;6.800;2023-02-15T04:36:36;31.70;;;18.83;;
14613;SDS011;7393;51.446;6.800;2023-02-15T04:39:03;27.97;;;17.80;;
14613;SDS011;7393;51.446;6.800;2023-02-15T04:41:29;30.23;;;18.30;;
14613;SDS011;7393;51.446;6.800;2023-02-15T04:43:56;31.47;;;18.10;;
14613;SDS011;7393;51.446;6.800;2023-02-15T04:46:24;29.53;;;18.07;;
14613;SDS011;7393;51.446;6.800;2023-02-15T04:48:51;28.23;;;17.70;;
14613;SDS011;7393;51.446;6.800;2023-02-15T04:51:18;33.07;;;19.40;;
14613;SDS011;7393;51.446;6.800;2023-02-15T04:53:46;27.83;;;18.17;;
14613;SDS011;7393;51.446;6.800;2023-02-15T04:56:13;32.57;;;19.37;;
14613;SDS011;7393;51.446;6.800;2023-02-15T04:58:40;32.53;;;18.40;;
14613;SDS011;7393;51.446;6.800;2023-02-15T05:01:07;30.37;;;18.57;;
14613;SDS011;7393;51.446;6.800;2023-02-15T05:03:34;31.87;;;19.60;;
14613;SDS011;7393;51.446;6.800;2023-02-15T05:06:02;31.13;;;18.07;;
14613;SDS011;7393;51.446;6.800;2023-02-15T05:08:29;31.80;;;18.70;;
14613;SDS011;7393;51.446;6.800;2023-02-15T05:10:57;30.60;;;18.47;;
14613;SDS011;7393;51.446;6.800;2023-02-15T05:13:24;31.40;;;18.70;;
14613;SDS011;7393;51.446;6.800;2023-02-15T05:15:52;29.30;;;19.07;;
14613;SDS011;7393;51.446;6.800;2023-02-15T05:18:19;31.13;;;18.80;;
14613;SDS011;7393;51.446;6.800;2023-02-15T05:20:47;30.83;;;18.77;;
14613;SDS011;7393;51.446;6.800;2023-02-15T05:23:14;30.03;;;18.67;;
14613;SDS011;7393;51.446;6.800;2023-02-15T05:25:41;35.20;;;19.43;;
14613;SDS011;7393;51.446;6.800;2023-02-15T05:28:43;32.30;;;20.30;;
14613;SDS011;7393;51.446;6.800;2023-02-15T05:31:10;28.30;;;18.37;;
14613;SDS011;7393;51.446;6.800;2023-02-15T05:33:38;33.80;;;18.97;;
14613;SDS011;7393;51.446;6.800;2023-02-15T05:36:06;31.17;;;19.40;;
14613;SDS011;7393;51.446;6.800;2023-02-15T05:38:34;27.67;;;18.77;;
14613;SDS011;7393;51.446;6.800;2023-02-15T05:41:02;28.23;;;18.17;;
14613;SDS011;7393;51.446;6.800;2023-02-15T05:43:29;29.07;;;18.50;;
14613;SDS011;7393;51.446;6.800;2023-02-15T05:45:57;34.50;;;19.83;;
14613;SDS011;7393;51.446;6.800;2023-02-15T05:48:25;32.17;;;19.43;;
14613;SDS011;7393;51.446;6.800;2023-02-15T05:50:59;31.50;;;19.43;;
14613;SDS011;7393;51.446;6.800;2023-02-15T05:53:27;31.20;;;19.73;;
14613;SDS011;7393;51.446;6.800;2023-02-15T05:55:54;34.17;;;20.97;;
14613;SDS011;7393;51.446;6.800;2023-02-15T05:58:24;34.23;;;19.93;;
14613;SDS011;7393;51.446;6.800;2023-02-15T06:00:51;32.93;;;19.90;;
14613;SDS011;7393;51.446;6.800;2023-02-15T06:03:19;32.83;;;21.17;;
14613;SDS011;7393;51.446;6.800;2023-02-15T06:05:46;32.53;;;19.40;;
14613;SDS011;7393;51.446;6.800;2023-02-15T06:08:13;33.37;;;19.83;;
14613;SDS011;7393;51.446;6.800;2023-02-15T06:10:40;32.50;;;20.20;;
14613;SDS011;7393;51.446;6.800;2023-02-15T06:13:07;30.47;;;19.07;;
14613;SDS011;7393;51.446;6.800;2023-02-15T06:15:33;34.33;;;20.40;;
14613;SDS011;7393;51.446;6.800;2023-02-15T06:18:00;31.87;;;19.57;;
14613;SDS011;7393;51.446;6.800;2023-02-15T06:20:28;32.10;;;19.57;;
14613;SDS011;7393;51.446;6.800;2023-02-15T06:22:55;34.20;;;20.23;;
14613;SDS011;7393;51.446;6.800;2023-02-15T06:25:22;30.50;;;19.73;;
14613;SDS011;7393;51.446;6.800;2023-02-15T06:27:49;33.50;;;20.10;;
14613;SDS011;7393;51.446;6.800;2023-02-15T06:30:16;30.23;;;19.43;;
14613;SDS011;7393;51.446;6.800;2023-02-15T06:32:43;32.87;;;19.43;;
14613;SDS011;7393;51.446;6.800;2023-02-15T06:35:10;34.37;;;19.90;;
14613;SDS011;7393;51.446;6.800;2023-02-15T06:37:38;29.17;;;18.03;;
14613;SDS011;7393;51.446;6.800;2023-02-15T06:40:05;30.03;;;18.83;;
14613;SDS011;7393;51.446;6.800;2023-02-15T06:42:33;28.00;;;18.60;;
14613;SDS011;7393;51.446;6.800;2023-02-15T06:45:00;31.03;;;19.30;;
14613;SDS011;7393;51.446;6.800;2023-02-15T06:47:27;30.57;;;18.23;;
14613;SDS011;7393;51.446;6.800;2023-02-15T06:49:53;33.40;;;19.67;;
14613;SDS011;7393;51.446;6.800;2023-02-15T06:52:20;32.13;;;19.70;;
14613;SDS011;7393;51.446;6.800;2023-02-15T06:54:48;31.10;;;19.03;;
14613;SDS011;7393;51.446;6.800;2023-02-15T06:57:15;32.90;;;18.63;;
14613;SDS011;7393;51.446;6.800;2023-02-15T06:59:42;32.63;;;19.60;;
14613;SDS011;7393;51.446;6.800;2023-02-15T07:02:09;33.63;;;19.70;;
14613;SDS011;7393;51.446;6.800;2023-02-15T07:04:37;31.30;;;18.80;;
14613;SDS011;7393;51.446;6.800;2023-02-15T07:07:07;32.40;;;19.17;;
14613;SDS011;7393;51.446;6.800;2023-02-15T07:09:35;36.17;;;20.73;;
14613;SDS011;7393;51.446;6.800;2023-02-15T07:12:03;32.63;;;18.63;;
14613;SDS011;7393;51.446;6.800;2023-02-15T07:14:48;36.13;;;20.07;;
14613;SDS011;7393;51.446;6.800;2023-02-15T07:17:15;30.17;;;18.93;;
14613;SDS011;7393;51.446;6.800;2023-02-15T07:19:42;37.23;;;19.07;;
14613;SDS011;7393;51.446;6.800;2023-02-15T07:22:09;30.97;;;18.30;;
14613;SDS011;7393;51.446;6.800;2023-02-15T07:24:36;30.60;;;19.00;;
14613;SDS011;7393;51.446;6.800;2023-02-15T07:27:04;32.17;;;18.97;;
14613;SDS011;7393;51.446;6.800;2023-02-15T07:29:32;29.97;;;18.73;;
14613;SDS011;7393;51.446;6.800;2023-02-15T07:31:59;31.80;;;18.40;;
14613;SDS011;7393;51.446;6.800;2023-02-15T07:34:26;32.43;;;18.33;;
14613;SDS011;7393;51.446;6.800;2023-02-15T07:36:53;29.30;;;17.73;;
14613;SDS011;7393;51.446;6.800;2023-02-15T07:39:19;31.20;;;18.47;;
14613;SDS011;7393;51.446;6.800;2023-02-15T07:41:46;32.03;;;18.37;;
14613;SDS011;7393;51.446;6.800;2023-02-15T07:44:14;25.60;;;17.27;;
14613;SDS011;7393;51.446;6.800;2023-02-15T07:46:41;28.83;;;17.53;;
14613;SDS011;7393;51.446;6.800;2023-02-15T07:49:08;32.50;;;17.63;;
14613;SDS011;7393;51.446;6.800;2023-02-15T07:51:35;32.10;;;18.77;;
14613;SDS011;7393;51.446;6.800;2023-02-15T07:54:02;30.37;;;17.47;;
14613;SDS011;7393;51.446;6.800;2023-02-15T07:56:28;31.17;;;17.87;;
14613;SDS011;7393;51.446;6.800;2023-02-15T07:58:55;27.87;;;16.83;;
14613;SDS011;7393;51.446;6.800;2023-02-15T08:01:25;30.20;;;17.40;;
14613;SDS011;7393;51.446;6.800;2023-02-15T08:03:53;30.40;;;17.47;;
14613;SDS011;7393;51.446;6.800;2023-02-15T08:06:21;33.33;;;18.33;;
14613;SDS011;7393;51.446;6.800;2023-02-15T08:08:49;27.47;;;17.47;;
14613;SDS011;7393;51.446;6.800;2023-02-15T08:11:18;30.37;;;18.33;;
14613;SDS011;7393;51.446;6.800;2023-02-15T08:13:54;34.07;;;17.97;;
14613;SDS011;7393;51.446;6.800;2023-02-15T08:16:26;27.63;;;16.90;;
14613;SDS011;7393;51.446;6.800;2023-02-15T08:18:55;28.80;;;17.07;;
14613;SDS011;7393;51.446;6.800;2023-02-15T08:21:22;27.53;;;16.43;;
14613;SDS011;7393;51.446;6.800;2023-02-15T08:23:51;28.73;;;16.57;;
14613;SDS011;7393;51.446;6.800;2023-02-15T08:26:18;25.33;;;16.23;;
14613;SDS011;7393;51.446;6.800;2023-02-15T08:28:45;25.47;;;16.07;;
14613;SDS011;7393;51.446;6.800;2023-02-15T08:31:14;29.17;;;17.37;;
14613;SDS011;7393;51.446;6.800;2023-02-15T08:33:43;27.50;;;17.40;;
14613;SDS011;7393;51.446;6.800;2023-02-15T08:36:11;26.87;;;16.80;;
14613;SDS011;7393;51.446;6.800;2023-02-15T08:38:38;27.53;;;17.27;;
14613;SDS011;7393;51.446;6.800;2023-02-15T08:41:09;30.67;;;16.70;;
14613;SDS011;7393;51.446;6.800;2023-02-15T08:43:37;27.77;;;16.80;;
14613;SDS011;7393;51.446;6.800;2023-02-15T08:46:04;26.43;;;16.27;;
14613;SDS011;7393;51.446;6.800;2023-02-15T08:48:31;23.47;;;15.07;;
14613;SDS011;7393;51.446;6.800;2023-02-15T08:51:03;23.57;;;14.80;;
14613;SDS011;7393;51.446;6.800;2023-02-15T08:53:32;26.27;;;15.63;;
14613;SDS011;7393;51.446;6.800;2023-02-15T08:55:58;26.37;;;15.53;;
14613;SDS011;7393;51.446;6.800;2023-02-15T08:58:25;24.50;;;15.03;;
14613;SDS011;7393;51.446;6.800;2023-02-15T09:00:52;27.00;;;15.03;;
14613;SDS011;7393;51.446;6.800;2023-02-15T09:03:19;25.83;;;15.10;;
14613;SDS011;7393;51.446;6.800;2023-02-15T09:05:46;27.33;;;14.80;;
14613;SDS011;7393;51.446;6.800;2023-02-15T09:08:14;26.20;;;15.10;;
14613;SDS011;7393;51.446;6.800;2023-02-15T09:10:41;25.17;;;15.30;;
14613;SDS011;7393;51.446;6.800;2023-02-15T09:13:08;25.70;;;14.83;;
14613;SDS011;7393;51.446;6.800;2023-02-15T09:15:35;23.63;;;14.73;;
14613;SDS011;7393;51.446;6.800;2023-02-15T09:18:02;25.53;;;14.97;;
14613;SDS011;7393;51.446;6.800;2023-02-15T09:20:31;23.10;;;14.53;;
14613;SDS011;7393;51.446;6.800;2023-02-15T09:22:58;21.77;;;13.97;;
14613;SDS011;7393;51.446;6.800;2023-02-15T09:25:26;21.83;;;14.53;;
14613;SDS011;7393;51.446;6.800;2023-02-15T09:27:53;21.00;;;13.87;;
14613;SDS011;7393;51.446;6.800;2023-02-15T09:30:20;25.77;;;14.23;;
14613;SDS011;7393;51.446;6.800;2023-02-15T09:32:47;22.10;;;14.77;;
14613;SDS011;7393;51.446;6.800;2023-02-15T09:35:14;24.23;;;14.67;;
14613;SDS011;7393;51.446;6.800;2023-02-15T09:37:41;22.37;;;14.03;;
14613;SDS011;7393;51.446;6.800;2023-02-15T09:40:08;20.03;;;13.40;;
14613;SDS011;7393;51.446;6.800;2023-02-15T09:45:39;23.00;;;13.43;;
14613;SDS011;7393;51.446;6.800;2023-02-15T09:51:13;22.53;;;14.33;;
14613;SDS011;7393;51.446;6.800;2023-02-15T09:54:01;23.60;;;14.27;;
14613;SDS011;7393;51.446;6.800;2023-02-15T09:56:42;20.17;;;13.40;;
14613;SDS011;7393;51.446;6.800;2023-02-15T09:59:18;19.83;;;13.63;;
14613;SDS011;7393;51.446;6.800;2023-02-15T10:01:53;25.83;;;14.97;;
14613;SDS011;7393;51.446;6.800;2023-02-15T10:04:35;19.53;;;13.27;;
14613;SDS011;7393;51.446;6.800;2023-02-15T10:07:21;24.20;;;13.27;;
14613;SDS011;7393;51.446;6.800;2023-02-15T10:10:02;24.00;;;13.63;;
14613;SDS011;7393;51.446;6.800;2023-02-15T10:12:43;20.43;;;13.40;;
14613;SDS011;7393;51.446;6.800;2023-02-15T10:15:26;24.47;;;13.03;;
14613;SDS011;7393;51.446;6.800;2023-02-15T10:18:04;19.03;;;12.63;;
14613;SDS011;7393;51.446;6.800;2023-02-15T10:20:41;19.33;;;12.63;;
14613;SDS011;7393;51.446;6.800;2023-02-15T10:23:43;21.27;;;14.00;;
14613;SDS011;7393;51.446;6.800;2023-02-15T10:26:21;23.17;;;14.07;;
14613;SDS011;7393;51.446;6.800;2023-02-15T10:28:49;20.83;;;12.90;;
14613;SDS011;7393;51.446;6.800;2023-02-15T10:31:23;21.10;;;13.37;;
14613;SDS011;7393;51.446;6.800;2023-02-15T10:33:58;20.43;;;13.60;;
14613;SDS011;7393;51.446;6.800;2023-02-15T10:36:47;22.10;;;13.73;;
14613;SDS011;7393;51.446;6.800;2023-02-15T10:39:34;20.13;;;12.67;;
14613;SDS011;7393;51.446;6.800;2023-02-15T10:42:11;19.53;;;13.20;;
14613;SDS011;7393;51.446;6.800;2023-02-15T10:44:49;20.93;;;13.67;;
14613;SDS011;7393;51.446;6.800;2023-02-15T10:47:34;18.90;;;13.37;;
14613;SDS011;7393;51.446;6.800;2023-02-15T10:50:24;20.63;;;13.27;;
14613;SDS011;7393;51.446;6.800;2023-02-15T10:53:00;21.70;;;14.07;;
14613;SDS011;7393;51.446;6.800;2023-02-15T10:55:55;18.57;;;12.17;;
14613;SDS011;7393;51.446;6.800;2023-02-15T10:58:31;18.33;;;12.30;;
14613;SDS011;7393;51.446;6.800;2023-02-15T11:01:10;22.20;;;12.70;;
14613;SDS011;7393;51.446;6.800;2023-02-15T11:03:55;18.33;;;11.93;;
14613;SDS011;7393;51.446;6.800;2023-02-15T11:06:52;20.77;;;12.57;;
14613;SDS011;7393;51.446;6.800;2023-02-15T11:09:21;19.90;;;12.37;;
14613;SDS011;7393;51.446;6.800;2023-02-15T11:11:51;21.23;;;13.07;;
14613;SDS011;7393;51.446;6.800;2023-02-15T11:14:27;25.03;;;12.90;;
14613;SDS011;7393;51.446;6.800;2023-02-15T11:17:04;19.90;;;11.80;;
14613;SDS011;7393;51.446;6.800;2023-02-15T11:19:37;18.77;;;12.57;;
14613;SDS011;7393;51.446;6.800;2023-02-15T11:22:09;18.33;;;12.17;;
14613;SDS011;7393;51.446;6.800;2023-02-15T11:24:39;22.53;;;12.73;;
14613;SDS011;7393;51.446;6.800;2023-02-15T11:27:17;18.60;;;12.33;;
14613;SDS011;7393;51.446;6.800;2023-02-15T11:29:50;18.07;;;11.57;;
14613;SDS011;7393;51.446;6.800;2023-02-15T11:32:21;19.30;;;12.33;;
14613;SDS011;7393;51.446;6.800;2023-02-15T11:34:54;21.43;;;12.83;;
14613;SDS011;7393;51.446;6.800;2023-02-15T11:37:27;20.37;;;13.00;;
14613;SDS011;7393;51.446;6.800;2023-02-15T11:40:01;17.10;;;12.17;;
14613;SDS011;7393;51.446;6.800;2023-02-15T11:42:29;18.30;;;12.33;;
14613;SDS011;7393;51.446;6.800;2023-02-15T11:44:59;19.67;;;12.23;;
14613;SDS011;7393;51.446;6.800;2023-02-15T11:47:30;20.13;;;12.50;;
14613;SDS011;7393;51.446;6.800;2023-02-15T11:49:59;18.70;;;12.37;;
14613;SDS011;7393;51.446;6.800;2023-02-15T11:52:25;16.27;;;11.90;;
14613;SDS011;7393;51.446;6.800;2023-02-15T11:54:52;17.63;;;11.70;;
14613;SDS011;7393;51.446;6.800;2023-02-15T11:57:22;18.93;;;12.67;;
14613;SDS011;7393;51.446;6.800;2023-02-15T11:59:53;18.17;;;11.57;;
14613;SDS011;7393;51.446;6.800;2023-02-15T12:02:26;18.07;;;11.77;;
14613;SDS011;7393;51.446;6.800;2023-02-15T12:04:56;17.73;;;11.63;;
14613;SDS011;7393;51.446;6.800;2023-02-15T12:07:27;20.00;;;11.60;;
14613;SDS011;7393;51.446;6.800;2023-02-15T12:10:00;16.57;;;11.30;;
14613;SDS011;7393;51.446;6.800;2023-02-15T12:12:32;15.30;;;10.80;;
14613;SDS011;7393;51.446;6.800;2023-02-15T12:15:01;19.60;;;11.37;;
14613;SDS011;7393;51.446;6.800;2023-02-15T12:17:29;15.53;;;10.60;;
14613;SDS011;7393;51.446;6.800;2023-02-15T12:20:01;18.90;;;10.63;;
14613;SDS011;7393;51.446;6.800;2023-02-15T12:22:30;20.73;;;11.43;;
14613;SDS011;7393;51.446;6.800;2023-02-15T12:25:00;18.43;;;10.87;;
14613;SDS011;7393;51.446;6.800;2023-02-15T12:27:30;16.53;;;10.30;;
14613;SDS011;7393;51.446;6.800;2023-02-15T12:29:59;17.40;;;10.60;;
14613;SDS011;7393;51.446;6.800;2023-02-15T12:32:31;20.40;;;11.10;;
14613;SDS011;7393;51.446;6.800;2023-02-15T12:35:06;18.20;;;10.60;;
14613;SDS011;7393;51.446;6.800;2023-02-15T12:37:36;17.13;;;11.13;;
14613;SDS011;7393;51.446;6.800;2023-02-15T12:40:18;16.97;;;10.30;;
14613;SDS011;7393;51.446;6.800;2023-02-15T12:42:46;17.37;;;10.77;;
14613;SDS011;7393;51.446;6.800;2023-02-15T12:45:21;20.90;;;10.83;;
14613;SDS011;7393;51.446;6.800;2023-02-15T12:50:41;16.80;;;10.63;;
14613;SDS011;7393;51.446;6.800;2023-02-15T12:53:13;19.67;;;10.93;;
14613;SDS011;7393;51.446;6.800;2023-02-15T12:55:51;16.57;;;11.07;;
14613;SDS011;7393;51.446;6.800;2023-02-15T12:58:20;18.47;;;11.73;;
14613;SDS011;7393;51.446;6.800;2023-02-15T13:01:01;20.20;;;12.23;;
14613;SDS011;7393;51.446;6.800;2023-02-15T13:03:30;16.03;;;10.97;;
14613;SDS011;7393;51.446;6.800;2023-02-15T13:05:58;19.23;;;10.90;;
14613;SDS011;7393;51.446;6.800;2023-02-15T13:08:27;21.30;;;10.13;;
14613;SDS011;7393;51.446;6.800;2023-02-15T13:10:56;17.00;;;11.00;;
14613;SDS011;7393;51.446;6.800;2023-02-15T13:13:26;16.90;;;10.47;;
14613;SDS011;7393;51.446;6.800;2023-02-15T13:15:56;18.30;;;10.67;;
14613;SDS011;7393;51.446;6.800;2023-02-15T13:18:28;17.30;;;10.47;;
14613;SDS011;7393;51.446;6.800;2023-02-15T13:21:00;17.83;;;10.47;;
14613;SDS011;7393;51.446;6.800;2023-02-15T13:23:39;15.73;;;10.30;;
14613;SDS011;7393;51.446;6.800;2023-02-15T13:26:18;17.57;;;10.40;;
14613;SDS011;7393;51.446;6.800;2023-02-15T13:28:47;15.83;;;10.00;;
14613;SDS011;7393;51.446;6.800;2023-02-15T13:31:18;18.17;;;10.57;;
14613;SDS011;7393;51.446;6.800;2023-02-15T13:33:48;20.17;;;10.37;;
14613;SDS011;7393;51.446;6.800;2023-02-15T13:36:20;17.57;;;9.73;;
14613;SDS011;7393;51.446;6.800;2023-02-15T13:38:53;19.20;;;10.60;;
14613;SDS011;7393;51.446;6.800;2023-02-15T13:41:31;18.07;;;10.17;;
14613;SDS011;7393;51.446;6.800;2023-02-15T13:44:03;22.70;;;12.20;;
14613;SDS011;7393;51.446;6.800;2023-02-15T13:46:44;19.83;;;11.50;;
14613;SDS011;7393;51.446;6.800;2023-02-15T13:49:18;18.80;;;12.40;;
14613;SDS011;7393;51.446;6.800;2023-02-15T13:51:57;20.27;;;12.47;;
14613;SDS011;7393;51.446;6.800;2023-02-15T13:54:33;18.53;;;10.77;;
14613;SDS011;7393;51.446;6.800;2023-02-15T13:57:17;19.70;;;10.87;;
14613;SDS011;7393;51.446;6.800;2023-02-15T13:59:58;17.57;;;10.80;;
14613;SDS011;7393;51.446;6.800;2023-02-15T14:02:35;17.27;;;10.30;;
14613;SDS011;7393;51.446;6.800;2023-02-15T14:05:12;21.10;;;12.03;;
14613;SDS011;7393;51.446;6.800;2023-02-15T14:07:54;17.90;;;9.90;;
14613;SDS011;7393;51.446;6.800;2023-02-15T14:10:33;20.60;;;11.13;;
14613;SDS011;7393;51.446;6.800;2023-02-15T14:13:13;15.93;;;10.20;;
14613;SDS011;7393;51.446;6.800;2023-02-15T14:15:57;21.53;;;10.70;;
14613;SDS011;7393;51.446;6.800;2023-02-15T14:18:30;21.53;;;10.43;;
14613;SDS011;7393;51.446;6.800;2023-02-15T14:21:03;20.03;;;10.53;;
14613;SDS011;7393;51.446;6.800;2023-02-15T14:23:43;18.60;;;10.50;;
14613;SDS011;7393;51.446;6.800;2023-02-15T14:26:21;17.00;;;10.23;;
14613;SDS011;7393;51.446;6.800;2023-02-15T14:28:58;17.20;;;10.20;;
14613;SDS011;7393;51.446;6.800;2023-02-15T14:31:39;20.03;;;11.33;;
14613;SDS011;7393;51.446;6.800;2023-02-15T14:34:14;17.87;;;10.07;;
14613;SDS011;7393;51.446;6.800;2023-02-15T14:36:45;17.37;;;10.27;;
14613;SDS011;7393;51.446;6.800;2023-02-15T14:39:16;17.00;;;10.40;;
14613;SDS011;7393;51.446;6.800;2023-02-15T14:42:09;18.27;;;10.47;;
14613;SDS011;7393;51.446;6.800;2023-02-15T14:44:45;17.50;;;10.13;;
14613;SDS011;7393;51.446;6.800;2023-02-15T14:47:16;16.57;;;10.03;;
14613;SDS011;7393;51.446;6.800;2023-02-15T14:49:48;18.20;;;10.40;;
14613;SDS011;7393;51.446;6.800;2023-02-15T14:52:15;18.60;;;10.07;;
14613;SDS011;7393;51.446;6.800;2023-02-15T14:55:01;16.27;;;9.27;;
14613;SDS011;7393;51.446;6.800;2023-02-15T14:57:33;20.53;;;10.67;;
14613;SDS011;7393;51.446;6.800;2023-02-15T15:00:01;17.23;;;9.93;;
14613;SDS011;7393;51.446;6.800;2023-02-15T15:02:46;17.23;;;10.03;;
14613;SDS011;7393;51.446;6.800;2023-02-15T15:05:17;16.63;;;10.07;;
14613;SDS011;7393;51.446;6.800;2023-02-15T15:07:46;17.50;;;10.37;;
14613;SDS011;7393;51.446;6.800;2023-02-15T15:18:54;16.37;;;10.20;;
14613;SDS011;7393;51.446;6.800;2023-02-15T15:36:24;18.63;;;11.47;;
14613;SDS011;7393;51.446;6.800;2023-02-15T15:39:14;17.63;;;10.83;;
14613;SDS011;7393;51.446;6.800;2023-02-15T15:41:53;17.90;;;11.80;;